sensor_id;sensor_type;location;lat;lon;timestamp;pressure;altitude;pressure_sealevel;temperature;humidity
82746;BME280;72484;50.004;14.356;2024-02-14T00:02:57;98461.55;;;4.46;75.01
82746;BME280;72484;50.004;14.356;2024-02-14T00:06:17;98463.02;;;4.47;75.14
82746;BME280;72484;50.004;14.356;2024-02-14T00:10:16;98466.57;;;4.47;74.92
82746;BME280;72484;50.004;14.356;2024-02-14T00:14:32;98466.21;;;4.40;75.05
82746;BME280;72484;50.004;14.356;2024-02-14T00:17:52;98469.55;;;4.35;75.11
82746;BME280;72484;50.004;14.356;2024-02-14T00:21:51;98470.22;;;4.30;75.40
82746;BME280;72484;50.004;14.356;2024-02-14T00:26:07;98471.81;;;4.28;76.01
82746;BME280;72484;50.004;14.356;2024-02-14T00:29:27;98472.54;;;4.22;75.71
82746;BME280;72484;50.004;14.356;2024-02-14T00:33:43;98469.52;;;4.18;75.84
82746;BME280;72484;50.004;14.356;2024-02-14T00:37:05;98470.33;;;4.13;75.84
82746;BME280;72484;50.004;14.356;2024-02-14T00:41:03;98468.97;;;4.12;76.01
82746;BME280;72484;50.004;14.356;2024-02-14T00:45:18;98468.66;;;4.10;76.56
82746;BME280;72484;50.004;14.356;2024-02-14T00:48:39;98477.39;;;4.06;76.49
82746;BME280;72484;50.004;14.356;2024-02-14T00:52:54;98480.10;;;4.07;76.92
82746;BME280;72484;50.004;14.356;2024-02-14T00:56:32;98483.58;;;4.12;77.22
82746;BME280;72484;50.004;14.356;2024-02-14T01:00:11;98487.36;;;4.12;76.86
82746;BME280;72484;50.004;14.356;2024-02-14T01:03:31;98484.79;;;4.10;77.25
82746;BME280;72484;50.004;14.356;2024-02-14T01:07:47;98482.65;;;4.19;77.90
82746;BME280;72484;50.004;14.356;2024-02-14T01:11:07;98473.30;;;4.24;77.67
82746;BME280;72484;50.004;14.356;2024-02-14T01:15:07;98473.83;;;4.34;77.82
82746;BME280;72484;50.004;14.356;2024-02-14T01:19:22;98475.34;;;4.38;77.26
82746;BME280;72484;50.004;14.356;2024-02-14T01:23:00;98473.58;;;4.43;77.47
82746;BME280;72484;50.004;14.356;2024-02-14T01:26:38;98468.78;;;4.41;77.22
82746;BME280;72484;50.004;14.356;2024-02-14T01:30:16;98467.75;;;4.38;76.73
82746;BME280;72484;50.004;14.356;2024-02-14T01:33:53;98470.05;;;4.35;77.20
82746;BME280;72484;50.004;14.356;2024-02-14T01:37:31;98468.80;;;4.36;76.79
82746;BME280;72484;50.004;14.356;2024-02-14T01:40:51;98467.61;;;4.30;76.84
82746;BME280;72484;50.004;14.356;2024-02-14T01:44:50;98467.81;;;4.31;76.96
82746;BME280;72484;50.004;14.356;2024-02-14T01:48:48;98465.67;;;4.28;76.99
82746;BME280;72484;50.004;14.356;2024-02-14T01:53:04;98467.96;;;4.20;77.41
82746;BME280;72484;50.004;14.356;2024-02-14T01:56:42;98466.30;;;4.20;77.51
82746;BME280;72484;50.004;14.356;2024-02-14T02:00:19;98459.58;;;4.16;77.44
82746;BME280;72484;50.004;14.356;2024-02-14T02:03:39;98448.05;;;4.19;77.38
82746;BME280;72484;50.004;14.356;2024-02-14T02:07:55;98449.08;;;4.18;77.53
82746;BME280;72484;50.004;14.356;2024-02-14T02:11:16;98448.16;;;4.06;78.07
82746;BME280;72484;50.004;14.356;2024-02-14T02:15:31;98446.15;;;4.13;78.69
82746;BME280;72484;50.004;14.356;2024-02-14T02:18:52;98448.36;;;4.21;78.69
82746;BME280;72484;50.004;14.356;2024-02-14T02:23:09;98449.01;;;4.31;79.01
82746;BME280;72484;50.004;14.356;2024-02-14T02:26:29;98451.67;;;4.36;78.62
82746;BME280;72484;50.004;14.356;2024-02-14T02:30:44;98452.23;;;4.43;78.72
82746;BME280;72484;50.004;14.356;2024-02-14T02:34:05;98450.39;;;4.48;78.73
82746;BME280;72484;50.004;14.356;2024-02-14T02:38:20;98446.73;;;4.53;78.97
82746;BME280;72484;50.004;14.356;2024-02-14T02:41:57;98443.67;;;4.64;78.72
82746;BME280;72484;50.004;14.356;2024-02-14T02:45:35;98435.89;;;4.72;78.49
82746;BME280;72484;50.004;14.356;2024-02-14T02:49:13;98435.05;;;4.79;78.72
82746;BME280;72484;50.004;14.356;2024-02-14T02:52:50;98438.02;;;4.85;78.56
82746;BME280;72484;50.004;14.356;2024-02-14T02:56:11;98439.30;;;4.82;78.36
82746;BME280;72484;50.004;14.356;2024-02-14T03:00:28;98443.67;;;4.84;78.42
82746;BME280;72484;50.004;14.356;2024-02-14T03:03:49;98446.27;;;4.83;78.21
82746;BME280;72484;50.004;14.356;2024-02-14T03:08:05;98451.98;;;4.76;78.52
82746;BME280;72484;50.004;14.356;2024-02-14T03:11:42;98452.23;;;4.71;78.47
82746;BME280;72484;50.004;14.356;2024-02-14T03:15:19;98455.11;;;4.69;78.81
82746;BME280;72484;50.004;14.356;2024-02-14T03:18:57;98455.48;;;4.77;78.60
82746;BME280;72484;50.004;14.356;2024-02-14T03:22:35;98449.57;;;4.82;78.50
82746;BME280;72484;50.004;14.356;2024-02-14T03:25:55;98449.13;;;4.83;78.87
82746;BME280;72484;50.004;14.356;2024-02-14T03:30:12;98452.34;;;4.85;78.57
82746;BME280;72484;50.004;14.356;2024-02-14T03:33:48;98455.20;;;4.82;78.72
82746;BME280;72484;50.004;14.356;2024-02-14T03:37:10;98455.91;;;4.82;78.67
82746;BME280;72484;50.004;14.356;2024-02-14T03:41:25;98458.86;;;4.80;78.42
82746;BME280;72484;50.004;14.356;2024-02-14T03:45:03;98461.73;;;4.78;78.61
82746;BME280;72484;50.004;14.356;2024-02-14T03:48:40;98458.63;;;4.77;78.73
82746;BME280;72484;50.004;14.356;2024-02-14T03:52:18;98451.83;;;4.73;78.33
82746;BME280;72484;50.004;14.356;2024-02-14T03:55:39;98448.97;;;4.64;78.53
82746;BME280;72484;50.004;14.356;2024-02-14T03:59:55;98452.20;;;4.60;78.41
82746;BME280;72484;50.004;14.356;2024-02-14T04:03:15;98448.27;;;4.55;78.49
82746;BME280;72484;50.004;14.356;2024-02-14T04:07:30;98443.65;;;4.53;78.87
82746;BME280;72484;50.004;14.356;2024-02-14T04:10:51;98442.20;;;4.52;79.24
82746;BME280;72484;50.004;14.356;2024-02-14T04:15:09;98438.23;;;4.51;79.16
82746;BME280;72484;50.004;14.356;2024-02-14T04:18:45;98438.86;;;4.48;79.13
82746;BME280;72484;50.004;14.356;2024-02-14T04:22:06;98442.03;;;4.40;79.35
82746;BME280;72484;50.004;14.356;2024-02-14T04:26:05;98437.83;;;4.36;79.63
82746;BME280;72484;50.004;14.356;2024-02-14T04:30:20;98436.26;;;4.30;79.80
82746;BME280;72484;50.004;14.356;2024-02-14T04:33:58;98431.98;;;4.33;80.38
82746;BME280;72484;50.004;14.356;2024-02-14T04:37:18;98440.52;;;4.39;80.26
82746;BME280;72484;50.004;14.356;2024-02-14T04:41:16;98438.67;;;4.47;80.16
82746;BME280;72484;50.004;14.356;2024-02-14T04:45:31;98432.85;;;4.54;80.01
82746;BME280;72484;50.004;14.356;2024-02-14T04:48:52;98429.71;;;4.53;79.95
82746;BME280;72484;50.004;14.356;2024-02-14T04:53:07;98433.41;;;4.52;79.64
82746;BME280;72484;50.004;14.356;2024-02-14T04:56:45;98433.21;;;4.43;79.86
82746;BME280;72484;50.004;14.356;2024-02-14T05:00:08;98435.58;;;4.40;80.63
82746;BME280;72484;50.004;14.356;2024-02-14T05:04:24;98433.81;;;4.39;80.24
82746;BME280;72484;50.004;14.356;2024-02-14T05:07:45;98433.79;;;4.39;80.25
82746;BME280;72484;50.004;14.356;2024-02-14T05:12:00;98433.94;;;4.36;80.10
82746;BME280;72484;50.004;14.356;2024-02-14T05:15:38;98430.14;;;4.38;80.39
82746;BME280;72484;50.004;14.356;2024-02-14T05:19:15;98442.60;;;4.33;80.26
82746;BME280;72484;50.004;14.356;2024-02-14T05:22:53;98441.09;;;4.30;80.23
82746;BME280;72484;50.004;14.356;2024-02-14T05:26:31;98441.88;;;4.30;80.57
82746;BME280;72484;50.004;14.356;2024-02-14T05:29:51;98441.83;;;4.26;81.16
82746;BME280;72484;50.004;14.356;2024-02-14T05:34:07;98441.73;;;4.37;81.13
82746;BME280;72484;50.004;14.356;2024-02-14T05:37:44;98440.59;;;4.39;80.83
82746;BME280;72484;50.004;14.356;2024-02-14T05:41:05;98442.05;;;4.40;80.67
82746;BME280;72484;50.004;14.356;2024-02-14T05:45:05;98438.84;;;4.41;80.69
82746;BME280;72484;50.004;14.356;2024-02-14T05:49:06;98443.98;;;4.36;80.96
82746;BME280;72484;50.004;14.356;2024-02-14T05:53:06;98443.47;;;4.43;81.60
82746;BME280;72484;50.004;14.356;2024-02-14T05:57:21;98445.30;;;4.56;81.17
82746;BME280;72484;50.004;14.356;2024-02-14T06:00:59;98447.48;;;4.61;80.59
82746;BME280;72484;50.004;14.356;2024-02-14T06:04:36;98445.00;;;4.56;80.47
82746;BME280;72484;50.004;14.356;2024-02-14T06:07:57;98444.20;;;4.56;80.32
82746;BME280;72484;50.004;14.356;2024-02-14T06:11:55;98445.34;;;4.57;80.77
82746;BME280;72484;50.004;14.356;2024-02-14T06:15:53;98443.96;;;4.59;80.60
82746;BME280;72484;50.004;14.356;2024-02-14T06:19:51;98442.25;;;4.64;80.59
82746;BME280;72484;50.004;14.356;2024-02-14T06:24:07;98444.90;;;4.69;80.92
82746;BME280;72484;50.004;14.356;2024-02-14T06:27:45;98442.05;;;4.78;80.47
82746;BME280;72484;50.004;14.356;2024-02-14T06:31:22;98446.58;;;4.83;80.04
82746;BME280;72484;50.004;14.356;2024-02-14T06:34:43;98448.92;;;4.85;79.97
82746;BME280;72484;50.004;14.356;2024-02-14T06:38:58;98453.39;;;4.83;79.82
82746;BME280;72484;50.004;14.356;2024-02-14T06:42:19;98450.81;;;4.74;79.79
82746;BME280;72484;50.004;14.356;2024-02-14T06:46:17;98454.54;;;4.66;80.26
82746;BME280;72484;50.004;14.356;2024-02-14T06:50:16;98458.19;;;4.63;81.03
82746;BME280;72484;50.004;14.356;2024-02-14T06:54:32;98456.23;;;4.67;80.84
82746;BME280;72484;50.004;14.356;2024-02-14T06:57:53;98459.70;;;4.57;80.71
82746;BME280;72484;50.004;14.356;2024-02-14T07:01:52;98465.26;;;4.48;81.28
82746;BME280;72484;50.004;14.356;2024-02-14T07:05:51;98463.39;;;4.46;81.79
82746;BME280;72484;50.004;14.356;2024-02-14T07:09:49;98463.39;;;4.44;81.89
82746;BME280;72484;50.004;14.356;2024-02-14T07:14:05;98462.10;;;4.45;82.28
82746;BME280;72484;50.004;14.356;2024-02-14T07:17:26;98464.50;;;4.47;82.41
82746;BME280;72484;50.004;14.356;2024-02-14T07:21:42;98466.72;;;4.53;82.71
82746;BME280;72484;50.004;14.356;2024-02-14T07:25:03;98462.01;;;4.57;82.46
82746;BME280;72484;50.004;14.356;2024-02-14T07:29:19;98463.50;;;4.64;82.80
82746;BME280;72484;50.004;14.356;2024-02-14T07:32:39;98463.42;;;4.70;82.73
82746;BME280;72484;50.004;14.356;2024-02-14T07:36:54;98466.36;;;4.76;82.92
82746;BME280;72484;50.004;14.356;2024-02-14T07:40:32;98468.89;;;4.86;82.85
82746;BME280;72484;50.004;14.356;2024-02-14T07:44:10;98470.89;;;4.93;82.47
82746;BME280;72484;50.004;14.356;2024-02-14T07:47:30;98472.98;;;5.01;82.59
82746;BME280;72484;50.004;14.356;2024-02-14T07:51:46;98471.12;;;5.09;82.44
82746;BME280;72484;50.004;14.356;2024-02-14T07:55:08;98470.08;;;5.13;82.37
82746;BME280;72484;50.004;14.356;2024-02-14T07:59:24;98470.73;;;5.17;82.13
82746;BME280;72484;50.004;14.356;2024-02-14T08:03:02;98469.41;;;5.22;82.14
82746;BME280;72484;50.004;14.356;2024-02-14T08:06:40;98464.35;;;5.29;82.37
82746;BME280;72484;50.004;14.356;2024-02-14T08:10:00;98464.60;;;5.33;81.94
82746;BME280;72484;50.004;14.356;2024-02-14T08:14:15;98462.69;;;5.42;81.84
82746;BME280;72484;50.004;14.356;2024-02-14T08:17:53;98461.21;;;5.48;81.76
82746;BME280;72484;50.004;14.356;2024-02-14T08:21:32;98458.99;;;5.56;81.65
82746;BME280;72484;50.004;14.356;2024-02-14T08:24:51;98461.34;;;5.57;81.57
82746;BME280;72484;50.004;14.356;2024-02-14T08:28:50;98461.13;;;5.62;81.35
82746;BME280;72484;50.004;14.356;2024-02-14T08:32:52;98456.67;;;5.65;81.51
82746;BME280;72484;50.004;14.356;2024-02-14T08:37:07;98447.31;;;5.68;82.00
82746;BME280;72484;50.004;14.356;2024-02-14T08:40:45;98445.71;;;5.71;81.59
82746;BME280;72484;50.004;14.356;2024-02-14T08:44:05;98442.02;;;5.80;81.52
82746;BME280;72484;50.004;14.356;2024-02-14T08:48:04;98438.71;;;5.88;80.88
82746;BME280;72484;50.004;14.356;2024-02-14T08:52:05;98434.31;;;5.98;80.99
82746;BME280;72484;50.004;14.356;2024-02-14T08:56:20;98430.61;;;6.03;80.45
82746;BME280;72484;50.004;14.356;2024-02-14T08:59:58;98433.02;;;6.12;80.69
82746;BME280;72484;50.004;14.356;2024-02-14T09:03:35;98427.93;;;6.20;80.39
82746;BME280;72484;50.004;14.356;2024-02-14T09:06:56;98431.14;;;6.27;80.51
82746;BME280;72484;50.004;14.356;2024-02-14T09:11:11;98426.63;;;6.35;80.12
82746;BME280;72484;50.004;14.356;2024-02-14T09:14:49;98430.09;;;6.43;80.12
82746;BME280;72484;50.004;14.356;2024-02-14T09:18:27;98432.26;;;6.54;80.04
82746;BME280;72484;50.004;14.356;2024-02-14T09:21:47;98430.80;;;6.65;79.67
82746;BME280;72484;50.004;14.356;2024-02-14T09:26:03;98432.80;;;6.76;79.78
82746;BME280;72484;50.004;14.356;2024-02-14T09:29:40;98427.28;;;6.89;79.32
82746;BME280;72484;50.004;14.356;2024-02-14T09:33:18;98435.23;;;6.95;78.34
82746;BME280;72484;50.004;14.356;2024-02-14T09:36:38;98428.73;;;7.01;77.62
82746;BME280;72484;50.004;14.356;2024-02-14T09:41:05;98424.61;;;7.12;77.06
82746;BME280;72484;50.004;14.356;2024-02-14T09:44:34;98422.24;;;7.19;76.54
82746;BME280;72484;50.004;14.356;2024-02-14T09:47:53;98417.06;;;7.22;76.39
82746;BME280;72484;50.004;14.356;2024-02-14T09:52:09;98414.89;;;7.30;76.32
82746;BME280;72484;50.004;14.356;2024-02-14T09:55:32;98417.90;;;7.36;75.40
82746;BME280;72484;50.004;14.356;2024-02-14T09:59:36;98416.33;;;7.44;75.66
82746;BME280;72484;50.004;14.356;2024-02-14T10:03:53;98417.30;;;7.56;75.50
82746;BME280;72484;50.004;14.356;2024-02-14T10:07:30;98415.91;;;7.66;75.21
82746;BME280;72484;50.004;14.356;2024-02-14T10:10:51;98424.49;;;7.74;74.27
82746;BME280;72484;50.004;14.356;2024-02-14T10:14:50;98424.79;;;7.86;74.10
82746;BME280;72484;50.004;14.356;2024-02-14T10:19:13;98419.19;;;8.03;73.24
82746;BME280;72484;50.004;14.356;2024-02-14T10:22:33;98416.46;;;8.15;73.79
82746;BME280;72484;50.004;14.356;2024-02-14T10:26:32;98418.31;;;8.37;73.65
82746;BME280;72484;50.004;14.356;2024-02-14T10:30:30;98425.52;;;8.58;73.18
82746;BME280;72484;50.004;14.356;2024-02-14T10:34:46;98428.30;;;8.74;72.25
82746;BME280;72484;50.004;14.356;2024-02-14T10:38:25;98432.05;;;8.88;71.96
82746;BME280;72484;50.004;14.356;2024-02-14T10:41:44;98431.11;;;8.99;71.47
82746;BME280;72484;50.004;14.356;2024-02-14T10:46:07;98427.77;;;9.10;71.77
82746;BME280;72484;50.004;14.356;2024-02-14T10:49:38;98422.33;;;9.21;71.41
82746;BME280;72484;50.004;14.356;2024-02-14T10:53:15;98415.89;;;9.34;70.87
82746;BME280;72484;50.004;14.356;2024-02-14T10:56:36;98413.87;;;9.42;70.02
82746;BME280;72484;50.004;14.356;2024-02-14T11:00:54;98419.72;;;9.47;69.37
82746;BME280;72484;50.004;14.356;2024-02-14T11:04:31;98410.52;;;9.55;69.38
82746;BME280;72484;50.004;14.356;2024-02-14T11:08:09;98409.61;;;9.65;68.82
82746;BME280;72484;50.004;14.356;2024-02-14T11:11:32;98402.96;;;9.77;68.08
82746;BME280;72484;50.004;14.356;2024-02-14T11:15:47;98397.58;;;9.90;66.65
82746;BME280;72484;50.004;14.356;2024-02-14T11:19:31;98387.98;;;10.02;65.47
82746;BME280;72484;50.004;14.356;2024-02-14T11:23:04;98378.12;;;10.10;64.91
82746;BME280;72484;50.004;14.356;2024-02-14T11:26:45;98371.77;;;10.17;65.02
82746;BME280;72484;50.004;14.356;2024-02-14T11:30:01;98381.75;;;10.20;64.73
82746;BME280;72484;50.004;14.356;2024-02-14T11:34:04;98371.95;;;10.25;64.25
82746;BME280;72484;50.004;14.356;2024-02-14T11:38:03;98378.83;;;10.32;64.22
82746;BME280;72484;50.004;14.356;2024-02-14T11:42:02;98374.27;;;10.37;64.54
82746;BME280;72484;50.004;14.356;2024-02-14T11:46:18;98374.52;;;10.44;63.90
82746;BME280;72484;50.004;14.356;2024-02-14T11:49:38;98370.45;;;10.41;63.98
82746;BME280;72484;50.004;14.356;2024-02-14T11:53:37;98367.10;;;10.43;64.23
82746;BME280;72484;50.004;14.356;2024-02-14T11:57:37;98366.31;;;10.46;64.17
82746;BME280;72484;50.004;14.356;2024-02-14T12:01:36;98366.72;;;10.57;64.26
82746;BME280;72484;50.004;14.356;2024-02-14T12:05:53;98350.83;;;10.59;63.79
82746;BME280;72484;50.004;14.356;2024-02-14T12:09:13;98344.52;;;10.59;64.61
82746;BME280;72484;50.004;14.356;2024-02-14T12:13:12;98331.83;;;10.76;65.29
82746;BME280;72484;50.004;14.356;2024-02-14T12:17:27;98321.02;;;10.90;64.81
82746;BME280;72484;50.004;14.356;2024-02-14T12:21:06;98319.42;;;10.93;64.16
82746;BME280;72484;50.004;14.356;2024-02-14T12:24:43;98312.58;;;10.88;64.22
82746;BME280;72484;50.004;14.356;2024-02-14T12:28:20;98315.38;;;10.82;63.58
82746;BME280;72484;50.004;14.356;2024-02-14T12:32:05;98308.02;;;10.73;63.70
82746;BME280;72484;50.004;14.356;2024-02-14T12:35:19;98314.90;;;10.69;64.54
82746;BME280;72484;50.004;14.356;2024-02-14T12:39:34;98318.81;;;10.75;64.77
82746;BME280;72484;50.004;14.356;2024-02-14T12:43:13;98332.94;;;10.81;65.27
82746;BME280;72484;50.004;14.356;2024-02-14T12:46:50;98345.55;;;10.86;64.64
82746;BME280;72484;50.004;14.356;2024-02-14T12:50:11;98349.77;;;10.98;64.69
82746;BME280;72484;50.004;14.356;2024-02-14T12:54:09;98345.77;;;11.02;64.18
82746;BME280;72484;50.004;14.356;2024-02-14T12:58:08;98334.27;;;11.01;64.39
82746;BME280;72484;50.004;14.356;2024-02-14T13:02:24;98331.63;;;11.01;64.62
82746;BME280;72484;50.004;14.356;2024-02-14T13:05:45;98332.73;;;11.03;64.65
82746;BME280;72484;50.004;14.356;2024-02-14T13:09:44;98331.79;;;11.06;64.67
82746;BME280;72484;50.004;14.356;2024-02-14T13:13:42;98325.48;;;11.05;64.35
82746;BME280;72484;50.004;14.356;2024-02-14T13:17:58;98328.18;;;11.07;64.79
82746;BME280;72484;50.004;14.356;2024-02-14T13:21:35;98334.23;;;11.17;64.62
82746;BME280;72484;50.004;14.356;2024-02-14T13:25:13;98326.52;;;11.28;64.35
82746;BME280;72484;50.004;14.356;2024-02-14T13:28:51;98320.36;;;11.35;64.15
82746;BME280;72484;50.004;14.356;2024-02-14T13:32:28;98318.82;;;11.38;64.35
82746;BME280;72484;50.004;14.356;2024-02-14T13:35:49;98319.52;;;11.42;64.17
82746;BME280;72484;50.004;14.356;2024-02-14T13:40:07;98320.54;;;11.49;64.24
82746;BME280;72484;50.004;14.356;2024-02-14T13:43:25;98321.05;;;11.58;63.85
82746;BME280;72484;50.004;14.356;2024-02-14T13:47:40;98319.41;;;11.67;64.31
82746;BME280;72484;50.004;14.356;2024-02-14T13:51:01;98322.52;;;11.72;64.11
82746;BME280;72484;50.004;14.356;2024-02-14T13:55:00;98326.12;;;11.72;64.15
82746;BME280;72484;50.004;14.356;2024-02-14T13:58:58;98323.95;;;11.73;63.95
82746;BME280;72484;50.004;14.356;2024-02-14T14:02:57;98322.11;;;11.71;63.88
82746;BME280;72484;50.004;14.356;2024-02-14T14:07:13;98327.41;;;11.69;64.25
82746;BME280;72484;50.004;14.356;2024-02-14T14:10:33;98329.10;;;11.65;64.61
82746;BME280;72484;50.004;14.356;2024-02-14T14:14:48;98326.25;;;11.59;64.78
82746;BME280;72484;50.004;14.356;2024-02-14T14:18:26;98323.02;;;11.50;65.28
82746;BME280;72484;50.004;14.356;2024-02-14T14:22:04;98329.52;;;11.43;66.01
82746;BME280;72484;50.004;14.356;2024-02-14T14:25:42;98336.16;;;11.39;66.65
82746;BME280;72484;50.004;14.356;2024-02-14T14:29:19;98334.42;;;11.31;66.82
82746;BME280;72484;50.004;14.356;2024-02-14T14:32:57;98334.34;;;11.26;67.11
82746;BME280;72484;50.004;14.356;2024-02-14T14:36:17;98334.21;;;11.19;67.29
82746;BME280;72484;50.004;14.356;2024-02-14T14:40:33;98343.09;;;11.18;67.70
82746;BME280;72484;50.004;14.356;2024-02-14T14:43:54;98343.36;;;11.06;67.88
82746;BME280;72484;50.004;14.356;2024-02-14T14:48:09;98348.88;;;11.02;68.51
82746;BME280;72484;50.004;14.356;2024-02-14T14:51:29;98350.07;;;11.02;68.38
82746;BME280;72484;50.004;14.356;2024-02-14T14:55:52;98350.33;;;10.97;68.67
82746;BME280;72484;50.004;14.356;2024-02-14T14:59:22;98348.25;;;10.97;69.09
82746;BME280;72484;50.004;14.356;2024-02-14T15:02:43;98348.86;;;11.03;69.17
82746;BME280;72484;50.004;14.356;2024-02-14T15:06:41;98349.27;;;11.05;69.18
82746;BME280;72484;50.004;14.356;2024-02-14T15:10:57;98346.39;;;11.08;68.84
82746;BME280;72484;50.004;14.356;2024-02-14T15:14:17;98356.77;;;11.08;68.84
82746;BME280;72484;50.004;14.356;2024-02-14T15:18:15;98355.90;;;11.06;68.78
82746;BME280;72484;50.004;14.356;2024-02-14T15:22:31;98356.93;;;11.03;68.96
82746;BME280;72484;50.004;14.356;2024-02-14T15:25:51;98363.98;;;10.99;68.76
82746;BME280;72484;50.004;14.356;2024-02-14T15:30:10;98366.70;;;10.91;68.97
82746;BME280;72484;50.004;14.356;2024-02-14T15:33:46;98371.19;;;10.85;69.14
82746;BME280;72484;50.004;14.356;2024-02-14T15:37:07;98374.38;;;10.84;69.45
82746;BME280;72484;50.004;14.356;2024-02-14T15:41:05;98372.78;;;10.78;69.71
82746;BME280;72484;50.004;14.356;2024-02-14T15:45:21;98368.45;;;10.78;69.97
82746;BME280;72484;50.004;14.356;2024-02-14T15:48:59;98366.55;;;10.73;69.90
82746;BME280;72484;50.004;14.356;2024-02-14T15:52:36;98370.30;;;10.67;70.20
82746;BME280;72484;50.004;14.356;2024-02-14T15:56:14;98365.91;;;10.64;70.46
82746;BME280;72484;50.004;14.356;2024-02-14T15:59:52;98367.35;;;10.63;70.52
82746;BME280;72484;50.004;14.356;2024-02-14T16:03:12;98362.16;;;10.57;70.71
82746;BME280;72484;50.004;14.356;2024-02-14T16:07:10;98359.20;;;10.51;71.13
82746;BME280;72484;50.004;14.356;2024-02-14T16:11:08;98365.60;;;10.47;71.12
82746;BME280;72484;50.004;14.356;2024-02-14T16:15:24;98369.50;;;10.41;71.46
82746;BME280;72484;50.004;14.356;2024-02-14T16:18:44;98384.02;;;10.36;71.79
82746;BME280;72484;50.004;14.356;2024-02-14T16:22:59;98387.60;;;10.31;72.07
82746;BME280;72484;50.004;14.356;2024-02-14T16:26:37;98397.02;;;10.36;72.04
82746;BME280;72484;50.004;14.356;2024-02-14T16:30:15;98399.42;;;10.38;72.26
82746;BME280;72484;50.004;14.356;2024-02-14T16:33:52;98396.94;;;10.35;72.22
82746;BME280;72484;50.004;14.356;2024-02-14T16:37:30;98405.78;;;10.34;72.28
82746;BME280;72484;50.004;14.356;2024-02-14T16:40:51;98407.14;;;10.28;72.67
82746;BME280;72484;50.004;14.356;2024-02-14T16:45:07;98404.75;;;10.34;72.45
82746;BME280;72484;50.004;14.356;2024-02-14T16:48:27;98408.73;;;10.30;72.52
82746;BME280;72484;50.004;14.356;2024-02-14T16:52:28;98410.89;;;10.29;72.69
82746;BME280;72484;50.004;14.356;2024-02-14T16:56:43;98411.99;;;10.28;72.61
82746;BME280;72484;50.004;14.356;2024-02-14T17:00:21;98410.80;;;10.27;73.01
82746;BME280;72484;50.004;14.356;2024-02-14T17:03:41;98411.52;;;10.28;73.10
82746;BME280;72484;50.004;14.356;2024-02-14T17:07:40;98412.79;;;10.27;72.95
82746;BME280;72484;50.004;14.356;2024-02-14T17:11:38;98414.38;;;10.25;72.89
82746;BME280;72484;50.004;14.356;2024-02-14T17:15:55;98421.25;;;10.29;72.80
82746;BME280;72484;50.004;14.356;2024-02-14T17:19:32;98425.31;;;10.26;73.13
82746;BME280;72484;50.004;14.356;2024-02-14T17:23:09;98431.39;;;10.31;72.88
82746;BME280;72484;50.004;14.356;2024-02-14T17:26:30;98434.41;;;10.28;72.88
82746;BME280;72484;50.004;14.356;2024-02-14T17:30:28;98436.00;;;10.24;73.12
82746;BME280;72484;50.004;14.356;2024-02-14T17:34:26;98435.27;;;10.20;73.45
82746;BME280;72484;50.004;14.356;2024-02-14T17:38:27;98438.95;;;10.19;73.53
82746;BME280;72484;50.004;14.356;2024-02-14T17:42:44;98444.56;;;10.16;73.52
82746;BME280;72484;50.004;14.356;2024-02-14T17:46:05;98447.44;;;10.12;73.75
82746;BME280;72484;50.004;14.356;2024-02-14T17:50:20;98447.73;;;10.08;73.75
82746;BME280;72484;50.004;14.356;2024-02-14T17:53:58;98451.77;;;10.03;74.00
82746;BME280;72484;50.004;14.356;2024-02-14T17:57:18;98456.23;;;10.02;74.03
82746;BME280;72484;50.004;14.356;2024-02-14T18:01:36;98457.34;;;10.00;74.40
82746;BME280;72484;50.004;14.356;2024-02-14T18:04:56;98459.03;;;10.02;74.34
82746;BME280;72484;50.004;14.356;2024-02-14T18:08:55;98454.24;;;10.03;74.19
82746;BME280;72484;50.004;14.356;2024-02-14T18:13:12;98458.98;;;10.09;74.26
82746;BME280;72484;50.004;14.356;2024-02-14T18:16:32;98454.35;;;10.06;74.37
82746;BME280;72484;50.004;14.356;2024-02-14T18:20:30;98455.55;;;10.09;74.16
82746;BME280;72484;50.004;14.356;2024-02-14T18:24:47;98459.06;;;10.08;74.27
82746;BME280;72484;50.004;14.356;2024-02-14T18:28:25;98466.25;;;10.11;74.14
82746;BME280;72484;50.004;14.356;2024-02-14T18:32:03;98462.89;;;10.07;73.95
82746;BME280;72484;50.004;14.356;2024-02-14T18:35:40;98457.10;;;10.06;74.02
82746;BME280;72484;50.004;14.356;2024-02-14T18:39:18;98452.71;;;10.01;73.99
82746;BME280;72484;50.004;14.356;2024-02-14T18:42:39;98448.88;;;9.97;74.31
82746;BME280;72484;50.004;14.356;2024-02-14T18:46:37;98440.34;;;9.94;74.20
82746;BME280;72484;50.004;14.356;2024-02-14T18:50:59;98438.32;;;9.87;74.54
82746;BME280;72484;50.004;14.356;2024-02-14T18:54:37;98440.27;;;9.80;74.61
82746;BME280;72484;50.004;14.356;2024-02-14T18:57:57;98441.83;;;9.71;74.83
82746;BME280;72484;50.004;14.356;2024-02-14T19:01:56;98446.45;;;9.70;74.97
82746;BME280;72484;50.004;14.356;2024-02-14T19:06:12;98451.81;;;9.64;75.24
82746;BME280;72484;50.004;14.356;2024-02-14T19:09:33;98457.36;;;9.54;75.69
82746;BME280;72484;50.004;14.356;2024-02-14T19:13:49;98455.25;;;9.48;76.11
82746;BME280;72484;50.004;14.356;2024-02-14T19:17:10;98455.52;;;9.42;76.11
82746;BME280;72484;50.004;14.356;2024-02-14T19:21:26;98454.48;;;9.42;76.40
82746;BME280;72484;50.004;14.356;2024-02-14T19:25:05;98461.67;;;9.40;76.51
82746;BME280;72484;50.004;14.356;2024-02-14T19:28:41;98460.38;;;9.39;76.44
82746;BME280;72484;50.004;14.356;2024-02-14T19:32:19;98457.98;;;9.39;76.57
82746;BME280;72484;50.004;14.356;2024-02-14T19:35:56;98457.06;;;9.32;76.71
82746;BME280;72484;50.004;14.356;2024-02-14T19:39:17;98455.59;;;9.28;77.18
82746;BME280;72484;50.004;14.356;2024-02-14T19:43:32;98454.64;;;9.29;77.30
82746;BME280;72484;50.004;14.356;2024-02-14T19:47:10;98450.20;;;9.31;77.21
82746;BME280;72484;50.004;14.356;2024-02-14T19:50:48;98455.93;;;9.30;77.17
82746;BME280;72484;50.004;14.356;2024-02-14T19:54:26;98454.19;;;9.30;77.31
82746;BME280;72484;50.004;14.356;2024-02-14T19:58:04;98452.13;;;9.31;76.91